Time;durP1;ratioP1;P1;durP2;ratioP2;P2;SDS_P1;SDS_P2;PMS_P1;PMS_P2;Temp;Humidity;BMP_temperature;BMP_pressure;BME280_temperature;BME280_humidity;BME280_pressure;Samples;Min_cycle;Max_cycle;Signal;HPM_P1;HPM_P2
2022/12/14 00:01:19;;;;;;;2.42;1.90;;;19.00;57.90;;;;;;6039247;29;20048;-60
2022/12/14 00:04:20;;;;;;;2.03;1.83;;;;;;;;;;6029137;29;20089;-59
2022/12/14 00:07:22;;;;;;;2.08;1.88;;;;;;;;;;6043695;29;20968;-59
2022/12/14 00:10:24;;;;;;;1.85;1.60;;;18.90;56.90;;;;;;6042475;29;20167;-58
2022/12/14 00:13:26;;;;;;;1.92;1.63;;;;;;;;;;6043326;29;20044;-58
2022/12/14 00:16:30;;;;;;;1.60;1.50;;;18.90;57.70;;;;;;6037554;29;20048;-57
2022/12/14 00:19:32;;;;;;;1.52;1.40;;;;;;;;;;6028461;29;20088;-60
2022/12/14 00:22:34;;;;;;;1.55;1.35;;;;;;;;;;6052530;29;20134;-60
2022/12/14 00:25:36;;;;;;;2.05;1.60;;;18.80;57.70;;;;;;6056241;29;20476;-58
2022/12/14 00:28:37;;;;;;;1.40;1.30;;;;;;;;;;6056423;29;21007;-60
2022/12/14 00:31:39;;;;;;;1.80;1.70;;;;;;;;;;6051477;29;21037;-60
2022/12/14 00:34:41;;;;;;;1.52;1.33;;;;;;;;;;6056961;29;20809;-59
2022/12/14 00:37:43;;;;;;;1.92;1.60;;;;;;;;;;6055826;29;20234;-59
2022/12/14 00:40:50;;;;;;;1.45;1.20;;;18.80;57.80;;;;;;6055627;29;20103;-58
2022/12/14 00:43:52;;;;;;;1.88;1.50;;;;;;;;;;6046937;29;20119;-60
2022/12/14 00:46:54;;;;;;;1.60;1.50;;;;;;;;;;6047216;29;20208;-58
2022/12/14 00:49:56;;;;;;;1.85;1.63;;;;;;;;;;6049076;29;20047;-59
2022/12/14 00:52:57;;;;;;;1.33;1.20;;;;;;;;;;6048645;29;20051;-60
2022/12/14 00:56:05;;;;;;;1.67;1.40;;;18.90;58.50;;;;;;6046820;29;20056;-59
2022/12/14 00:59:07;;;;;;;1.70;1.60;;;;;;;;;;6037675;29;20448;-60
2022/12/14 01:02:09;;;;;;;1.77;1.60;;;;;;;;;;6049510;29;20047;-59
2022/12/14 01:05:11;;;;;;;1.45;1.25;;;;;;;;;;6054831;29;20125;-60
2022/12/14 01:08:13;;;;;;;1.65;1.40;;;;;;;;;;6050551;29;20410;-59
2022/12/14 01:11:16;;;;;;;1.40;1.30;;;18.70;58.10;;;;;;6047226;29;21084;-60
2022/12/14 01:14:19;;;;;;;1.48;1.20;;;18.80;58.40;;;;;;6048927;29;20036;-60
2022/12/14 01:17:20;;;;;;;1.58;1.40;;;;;;;;;;6047101;29;20049;-59
2022/12/14 01:20:22;;;;;;;1.40;1.30;;;;;;;;;;6047222;29;20040;-59
2022/12/14 01:23:24;;;;;;;1.70;1.25;;;;;;;;;;6049127;29;20134;-60
2022/12/14 01:26:28;;;;;;;1.13;1.02;;;18.80;58.80;;;;;;6048720;29;20082;-60
2022/12/14 01:29:29;;;;;;;1.50;1.40;;;;;;;;;;6036755;29;20052;-57
2022/12/14 01:32:31;;;;;;;1.38;1.23;;;;;;;;;;6042307;29;20134;-59
2022/12/14 01:35:33;;;;;;;1.40;1.30;;;;;;;;;;6049274;29;20040;-59
2022/12/14 01:38:35;;;;;;;1.38;1.17;;;;;;;;;;6043721;29;20047;-60
2022/12/14 01:41:39;;;;;;;1.25;1.10;;;18.70;58.40;;;;;;6044980;29;20379;-59
2022/12/14 01:44:53;;;;;;;1.27;1.10;;;19.10;58.70;;;;;;6029456;29;20040;-60
2022/12/14 01:48:00;;;;;;;1.33;1.23;;;18.90;58.40;;;;;;6025206;29;20135;-60
2022/12/14 01:51:02;;;;;;;1.20;0.98;;;;;;;;;;6043261;29;20044;-58
2022/12/14 01:54:07;;;;;;;1.25;1.15;;;18.80;58.60;;;;;;6044293;29;20850;-59
2022/12/14 01:57:11;;;;;;;1.50;1.13;;;18.90;58.90;;;;;;6049925;29;20051;-59
2022/12/14 02:00:13;;;;;;;1.10;1.00;;;;;;;;;;6047904;29;20084;-58
2022/12/14 02:03:19;;;;;;;1.10;1.00;;;18.80;58.80;;;;;;6048288;29;20120;-60
2022/12/14 02:06:25;;;;;;;1.48;1.15;;;18.70;58.80;;;;;;6045633;29;20048;-58
2022/12/14 02:09:31;;;;;;;1.77;1.20;;;18.70;58.80;;;;;;6034335;29;20048;-59
2022/12/14 02:12:37;;;;;;;1.13;1.02;;;18.90;59.00;;;;;;6050707;29;20048;-59
2022/12/14 02:15:39;;;;;;;1.30;1.20;;;;;;;;;;6056963;29;20044;-59
2022/12/14 02:18:41;;;;;;;1.17;1.08;;;;;;;;;;6042314;29;20048;-60
2022/12/14 02:22:02;;;;;;;1.30;1.20;;;18.90;59.40;;;;;;6046860;29;20071;-59
2022/12/14 02:25:28;;;;;;;1.17;0.88;;;18.90;59.20;;;;;;6045973;29;20036;-59
2022/12/14 02:28:54;;;;;;;1.50;1.00;;;18.90;59.40;;;;;;6046305;29;20840;-58
2022/12/14 02:32:09;;;;;;;1.25;1.15;;;18.90;59.30;;;;;;6051786;29;20044;-60
2022/12/14 02:35:18;;;;;;;1.20;1.10;;;18.90;57.10;;;;;;6032486;29;21188;-59
2022/12/14 02:38:30;;;;;;;0.95;0.85;;;18.90;57.00;;;;;;6036937;29;21037;-60
2022/12/14 02:41:39;;;;;;;1.02;0.93;;;18.80;59.00;;;;;;6051793;29;20166;-60
2022/12/14 02:44:50;;;;;;;1.17;1.08;;;18.70;58.80;;;;;;6048524;29;20178;-57
2022/12/14 02:47:59;;;;;;;1.17;1.08;;;18.80;59.30;;;;;;6044788;29;20052;-58
2022/12/14 02:51:07;;;;;;;1.13;1.00;;;18.80;58.10;;;;;;6044877;29;20106;-60
2022/12/14 02:54:13;;;;;;;1.45;1.05;;;18.80;59.00;;;;;;6044626;29;20127;-56
2022/12/14 02:57:21;;;;;;;1.00;0.88;;;18.90;59.00;;;;;;6025211;29;20088;-59
2022/12/14 03:00:23;;;;;;;1.40;1.10;;;18.90;58.70;;;;;;6051688;29;20048;-59
2022/12/14 03:03:25;;;;;;;1.30;1.15;;;18.90;58.20;;;;;;6055884;29;20056;-58
2022/12/14 03:06:28;;;;;;;1.08;0.98;;;;;;;;;;6048409;29;20735;-59
2022/12/14 03:09:31;;;;;;;1.17;0.90;;;18.80;58.60;;;;;;6039701;29;20059;-60
2022/12/14 03:12:33;;;;;;;1.00;0.80;;;;;;;;;;6037218;29;20044;-59
2022/12/14 03:15:37;;;;;;;1.17;1.05;;;18.80;59.20;;;;;;6038546;29;20482;-59
2022/12/14 03:18:43;;;;;;;1.45;1.17;;;18.90;58.90;;;;;;6037200;29;21102;-59
2022/12/14 03:21:49;;;;;;;1.10;1.00;;;18.80;59.20;;;;;;6021439;29;20312;-59
2022/12/14 03:24:57;;;;;;;1.35;1.00;;;18.70;58.90;;;;;;6037760;29;20122;-57
2022/12/14 03:28:04;;;;;;;1.13;0.90;;;18.80;59.00;;;;;;6036388;29;20909;-59
2022/12/14 03:31:11;;;;;;;0.95;0.80;;;18.90;59.40;;;;;;6037283;29;20250;-56
2022/12/14 03:34:15;;;;;;;1.25;1.10;;;18.80;59.30;;;;;;6020013;29;20054;-59
2022/12/14 03:37:23;;;;;;;1.10;1.00;;;18.80;59.40;;;;;;6037587;29;20200;-60
2022/12/14 03:40:30;;;;;;;1.20;1.10;;;18.60;59.30;;;;;;6039185;29;20274;-58
2022/12/14 03:43:35;;;;;;;1.17;0.90;;;18.70;58.70;;;;;;6032921;29;20746;-59
2022/12/14 03:46:42;;;;;;;0.98;0.80;;;18.80;58.90;;;;;;6030807;29;20620;-59
2022/12/14 03:49:56;;;;;;;1.35;1.15;;;18.80;58.80;;;;;;6034501;29;20328;-59
2022/12/14 03:53:02;;;;;;;1.17;0.93;;;18.80;58.80;;;;;;6032728;29;20466;-57
2022/12/14 03:56:08;;;;;;;0.77;0.73;;;19.00;58.90;;;;;;6012883;29;20080;-58
2022/12/14 03:59:14;;;;;;;1.33;0.93;;;18.80;58.80;;;;;;6031549;29;20056;-59
2022/12/14 04:02:24;;;;;;;1.25;1.10;;;18.80;58.80;;;;;;6024876;29;20067;-59
2022/12/14 04:05:34;;;;;;;1.10;1.00;;;18.80;58.80;;;;;;6033436;29;20048;-58
2022/12/14 04:08:41;;;;;;;1.20;1.10;;;18.80;58.70;;;;;;6032836;29;20187;-57
2022/12/14 04:21:53;;;;;;;1.02;0.93;;;18.70;59.20;;;;;;6022731;29;20156;-60
2022/12/14 04:31:41;;;;;;;0.90;0.80;;;18.80;58.90;;;;;;6050479;29;20055;-60
2022/12/14 04:34:45;;;;;;;1.00;0.90;;;18.80;59.20;;;;;;6045172;29;20048;-60
2022/12/14 04:37:50;;;;;;;0.98;0.88;;;18.70;59.20;;;;;;6047319;29;20051;-59
2022/12/14 04:40:54;;;;;;;0.98;0.80;;;18.80;59.20;;;;;;6048996;29;20147;-59
2022/12/14 04:43:59;;;;;;;1.15;0.90;;;18.80;58.10;;;;;;6049551;29;20106;-60
2022/12/14 04:47:03;;;;;;;1.25;1.15;;;18.90;58.90;;;;;;6047166;29;20087;-59
2022/12/14 04:50:11;;;;;;;1.00;0.90;;;18.70;57.90;;;;;;6048096;29;20051;-59
2022/12/14 04:53:17;;;;;;;0.75;0.68;;;18.80;59.20;;;;;;6046248;29;20046;-59
2022/12/14 04:56:23;;;;;;;0.93;0.82;;;18.90;59.30;;;;;;6026018;29;20201;-59
2022/12/14 04:59:26;;;;;;;1.17;1.00;;;19.00;57.00;;;;;;6045832;29;20159;-59
2022/12/14 05:02:41;;;;;;;0.98;0.88;;;18.70;59.40;;;;;;6042830;29;20191;-59
2022/12/14 05:05:58;;;;;;;1.20;1.00;;;18.80;59.10;;;;;;6043244;29;20335;-59
2022/12/14 05:09:10;;;;;;;1.08;0.90;;;18.90;59.40;;;;;;6030366;29;20048;-59
2022/12/14 05:12:17;;;;;;;1.10;0.90;;;18.70;59.50;;;;;;6014654;29;20271;-58
2022/12/14 05:15:23;;;;;;;1.23;1.00;;;18.80;59.30;;;;;;6016354;29;20146;-57
2022/12/14 05:18:25;;;;;;;1.15;0.98;;;;;;;;;;6014770;29;20520;-59
2022/12/14 05:24:44;;;;;;;1.17;0.90;;;18.80;59.60;;;;;;6011138;29;20512;-57
2022/12/14 05:27:46;;;;;;;1.20;0.98;;;;;;;;;;6029014;29;20044;-59
2022/12/14 05:30:47;;;;;;;1.10;0.88;;;;;;;;;;6034891;29;20309;-58
2022/12/14 05:33:50;;;;;;;1.00;0.90;;;;;;;;;;6031583;29;20797;-60
2022/12/14 05:36:53;;;;;;;0.95;0.82;;;;;;;;;;6013339;29;20112;-60
2022/12/14 05:39:55;;;;;;;1.13;1.00;;;18.70;58.00;;;;;;6033810;29;20174;-59
2022/12/14 05:43:04;;;;;;;0.90;0.80;;;18.80;59.10;;;;;;6032081;29;20070;-56
2022/12/14 05:46:06;;;;;;;1.08;0.98;;;;;;;;;;6029868;29;20266;-58
2022/12/14 05:49:08;;;;;;;0.88;0.80;;;;;;;;;;6031216;29;20048;-60
2022/12/14 05:52:09;;;;;;;1.00;0.80;;;;;;;;;;6011721;29;20433;-58
2022/12/14 05:55:11;;;;;;;0.80;0.77;;;18.80;58.60;;;;;;6039412;29;20046;-59
2022/12/14 05:58:13;;;;;;;0.95;0.80;;;;;;;;;;6032585;29;20509;-56
2022/12/14 06:01:15;;;;;;;0.93;0.77;;;;;;;;;;6024887;29;20772;-60
2022/12/14 06:04:21;;;;;;;0.80;0.75;;;;;;;;;;6021967;29;20322;-59
2022/12/14 06:07:23;;;;;;;0.80;0.80;;;;;;;;;;6017399;29;20075;-59
2022/12/14 06:10:29;;;;;;;1.42;0.98;;;18.70;58.40;;;;;;6021434;29;20631;-58
2022/12/14 06:13:31;;;;;;;1.27;1.02;;;;;;;;;;6027790;29;20201;-59
2022/12/14 06:16:33;;;;;;;1.20;0.98;;;;;;;;;;6021574;29;20099;-60
2022/12/14 06:19:35;;;;;;;1.27;1.17;;;;;;;;;;6031362;29;20362;-58
2022/12/14 06:22:37;;;;;;;1.10;1.00;;;;;;;;;;6032610;29;20064;-60
2022/12/14 06:25:52;;;;;;;1.10;0.70;;;18.80;59.30;;;;;;6033996;29;20361;-58
2022/12/14 06:28:54;;;;;;;1.17;0.82;;;18.70;59.30;;;;;;6030920;29;20542;-60
2022/12/14 06:31:56;;;;;;;1.08;0.85;;;;;;;;;;6033973;29;20052;-60
2022/12/14 06:34:58;;;;;;;1.30;1.20;;;;;;;;;;6027617;29;21048;-60
2022/12/14 06:38:00;;;;;;;1.08;0.80;;;;;;;;;;6041015;29;20163;-59
2022/12/14 06:41:06;;;;;;;1.00;0.90;;;18.60;59.30;;;;;;6049519;29;20083;-59
2022/12/14 06:44:11;;;;;;;0.73;0.73;;;18.80;59.40;;;;;;6044187;29;20907;-59
2022/12/14 06:47:13;;;;;;;0.95;0.80;;;;;;;;;;6029322;29;20585;-60
2022/12/14 06:50:15;;;;;;;1.20;0.90;;;;;;;;;;6036111;29;20040;-60
2022/12/14 06:53:17;;;;;;;1.00;0.90;;;;;;;;;;6043631;29;21001;-61
2022/12/14 06:56:20;;;;;;;1.52;0.93;;;18.80;59.50;;;;;;6039223;29;20050;-60
2022/12/14 06:59:22;;;;;;;1.17;1.08;;;;;;;;;;6050173;29;20474;-60
2022/12/14 07:02:24;;;;;;;1.20;1.05;;;;;;;;;;6033800;29;21365;-60
2022/12/14 07:05:27;;;;;;;1.67;1.20;;;;;;;;;;6025515;29;20178;-57
2022/12/14 07:08:30;;;;;;;1.13;1.02;;;18.90;59.30;;;;;;6033320;29;20040;-59
2022/12/14 07:11:33;;;;;;;0.85;0.80;;;18.80;59.00;;;;;;6033522;29;20048;-59
2022/12/14 07:14:34;;;;;;;1.13;0.90;;;;;;;;;;6036979;29;20283;-59
2022/12/14 07:17:36;;;;;;;1.00;0.90;;;;;;;;;;6027444;29;20036;-60
2022/12/14 07:20:38;;;;;;;0.98;0.85;;;;;;;;;;6024600;29;20039;-62
2022/12/14 07:23:41;;;;;;;1.05;0.95;;;19.10;57.70;;;;;;6024170;29;20047;-60
2022/12/14 07:26:43;;;;;;;1.23;1.05;;;19.00;59.00;;;;;;5978659;29;20099;-61
2022/12/14 07:29:45;;;;;;;2.50;0.90;;;;;;;;;;6018883;29;21096;-61
2022/12/14 07:32:47;;;;;;;1.52;0.90;;;;;;;;;;6014946;29;20147;-61
2022/12/14 07:35:49;;;;;;;1.55;1.15;;;;;;;;;;6016025;29;20071;-63
2022/12/14 07:38:52;;;;;;;1.27;0.90;;;19.40;56.10;;;;;;6019076;29;20170;-63
2022/12/14 07:41:55;;;;;;;1.30;1.17;;;19.50;58.30;;;;;;5991129;29;20206;-63
2022/12/14 07:44:59;;;;;;;1.65;1.02;;;;;;;;;;5972927;29;20291;-63
2022/12/14 07:48:01;;;;;;;1.30;1.13;;;;;;;;;;5969126;29;20051;-63
2022/12/14 07:51:06;;;;;;;1.35;1.20;;;19.60;58.50;;;;;;5968070;29;20056;-61
2022/12/14 07:54:08;;;;;;;1.40;1.13;;;;;;;;;;5930772;29;20143;-59
2022/12/14 07:57:10;;;;;;;1.27;0.95;;;19.50;58.20;;;;;;5949318;29;20986;-64
2022/12/14 08:00:13;;;;;;;2.47;1.08;;;19.70;57.40;;;;;;5932000;29;20118;-65
2022/12/14 08:03:14;;;;;;;1.10;1.00;;;;;;;;;;5901470;29;20048;-62
2022/12/14 08:06:18;;;;;;;1.27;1.13;;;19.80;59.80;;;;;;5897598;29;20103;-62
2022/12/14 08:09:20;;;;;;;2.00;1.15;;;;;;;;;;5910630;29;20135;-63
2022/12/14 08:12:22;;;;;;;1.83;1.17;;;19.70;57.80;;;;;;5908302;29;20048;-61
2022/12/14 08:15:24;;;;;;;1.38;1.10;;;;;;;;;;5878480;29;20041;-63
2022/12/14 08:18:26;;;;;;;1.45;1.35;;;;;;;;;;5865649;29;21127;-64
2022/12/14 08:21:28;;;;;;;1.60;1.05;;;19.90;57.70;;;;;;5873118;29;21171;-61
2022/12/14 08:24:30;;;;;;;1.85;1.50;;;;;;;;;;5886738;29;21897;-63
2022/12/14 08:27:32;;;;;;;2.38;1.25;;;19.90;59.00;;;;;;5890796;29;20134;-65
2022/12/14 08:30:37;;;;;;;5.22;1.20;;;19.80;58.50;;;;;;5884201;29;20055;-62
2022/12/14 08:33:41;;;;;;;1.70;1.30;;;19.90;58.70;;;;;;5865227;29;20052;-64
2022/12/14 08:36:44;;;;;;;1.58;1.27;;;;;;;;;;5819843;29;20275;-63
2022/12/14 08:39:46;;;;;;;1.08;0.98;;;;;;;;;;5872920;29;21498;-61
2022/12/14 08:42:51;;;;;;;1.73;1.10;;;20.00;57.90;;;;;;5863637;29;20431;-61
2022/12/14 08:45:53;;;;;;;1.50;1.20;;;20.50;58.60;;;;;;5865295;29;22664;-61
2022/12/14 08:48:56;;;;;;;2.13;1.40;;;;;;;;;;5876503;29;20044;-61
2022/12/14 08:51:58;;;;;;;1.02;0.93;;;;;;;;;;5847044;29;20043;-62
2022/12/14 08:55:00;;;;;;;1.05;0.98;;;;;;;;;;5839351;29;20119;-60
2022/12/14 08:58:02;;;;;;;1.10;1.00;;;20.20;58.40;;;;;;5850302;29;20051;-61
2022/12/14 09:01:05;;;;;;;1.20;1.00;;;20.50;58.80;;;;;;5839217;29;20048;-61
2022/12/14 09:04:07;;;;;;;1.52;1.17;;;20.50;58.60;;;;;;5838376;29;20055;-62
2022/12/14 09:07:10;;;;;;;1.10;0.85;;;;;;;;;;5891571;29;20939;-60
2022/12/14 09:10:12;;;;;;;1.30;1.13;;;20.40;57.50;;;;;;5921398;29;20047;-62
2022/12/14 09:13:14;;;;;;;1.73;1.20;;;20.50;57.70;;;;;;6152095;23;21073;-60
2022/12/14 09:16:19;;;;;;;1.52;1.20;;;20.40;58.50;;;;;;5942884;28;21451;-64
2022/12/14 09:19:21;;;;;;;1.52;1.42;;;;;;;;;;5946808;28;20040;-62
2022/12/14 09:22:23;;;;;;;2.45;1.05;;;;;;;;;;5933180;28;20047;-64
2022/12/14 09:25:24;;;;;;;2.42;1.30;;;;;;;;;;5917075;28;21168;-64
2022/12/14 09:28:27;;;;;;;1.52;1.23;;;20.30;57.60;;;;;;5946667;28;20051;-61
2022/12/14 09:31:29;;;;;;;1.23;1.13;;;;;;;;;;5915393;28;20126;-62
2022/12/14 09:34:31;;;;;;;1.40;1.30;;;;;;;;;;5928923;28;20055;-61
2022/12/14 09:37:33;;;;;;;1.42;1.30;;;20.40;58.20;;;;;;5913055;28;20874;-62
2022/12/14 09:40:35;;;;;;;1.13;1.02;;;;;;;;;;5891514;28;20043;-61
2022/12/14 09:43:40;;;;;;;1.80;1.30;;;20.70;58.50;;;;;;5920406;28;20663;-62
2022/12/14 09:46:51;;;;;;;1.42;1.30;;;20.50;58.20;;;;;;5934429;28;20062;-64
2022/12/14 09:49:56;;;;;;;1.45;1.35;;;20.80;58.70;;;;;;5919342;28;20800;-63
2022/12/14 09:53:00;;;;;;;1.00;0.90;;;20.40;58.60;;;;;;5877344;28;20043;-63
2022/12/14 09:56:03;;;;;;;1.67;1.25;;;;;;;;;;5917977;28;20944;-63
2022/12/14 09:59:10;;;;;;;1.35;1.15;;;20.50;58.20;;;;;;5912191;28;22528;-63
2022/12/14 10:02:24;;;;;;;1.75;1.17;;;20.50;58.20;;;;;;5897288;28;20142;-63
2022/12/14 10:05:50;;;;;;;1.58;1.10;;;20.40;58.10;;;;;;5892862;28;22067;-62
2022/12/14 10:09:01;;;;;;;1.60;1.50;;;19.50;57.80;;;;;;5909145;28;21004;-62
2022/12/14 10:12:13;;;;;;;1.40;1.25;;;20.50;58.40;;;;;;5890345;28;20051;-64
2022/12/14 10:15:20;;;;;;;;;;;20.80;59.00;;;;;;5895423;28;25695;-63
2022/12/14 10:18:36;;;;;;;1.38;1.27;;;20.60;57.90;;;;;;5902989;28;20001;-62
2022/12/14 10:22:02;;;;;;;1.75;1.25;;;20.70;58.20;;;;;;5920622;28;20620;-64
2022/12/14 10:25:07;;;;;;;1.55;1.40;;;20.30;57.40;;;;;;5927513;28;20056;-62
2022/12/14 10:28:14;;;;;;;1.55;1.33;;;20.60;57.40;;;;;;5878061;28;20074;-61
2022/12/14 10:31:29;;;;;;;1.55;1.17;;;20.60;57.70;;;;;;5867404;28;20043;-62
2022/12/14 10:34:33;;;;;;;1.85;1.10;;;21.10;56.70;;;;;;5774438;28;22131;-63
2022/12/14 10:37:40;;;;;;;1.55;1.30;;;20.60;57.80;;;;;;5731847;28;20044;-62
2022/12/14 10:40:53;;;;;;;1.48;1.10;;;20.40;58.00;;;;;;5822435;28;20043;-63
2022/12/14 10:44:01;;;;;;;1.20;1.05;;;20.60;58.00;;;;;;5798356;28;20171;-62
2022/12/14 10:47:12;;;;;;;1.10;1.00;;;20.80;57.90;;;;;;5760196;28;21899;-60
2022/12/14 10:50:19;;;;;;;1.10;1.00;;;20.70;57.80;;;;;;5803551;28;20424;-61
2022/12/14 10:53:30;;;;;;;1.23;0.93;;;20.70;57.40;;;;;;5891305;28;20035;-62
2022/12/14 10:56:41;;;;;;;1.30;1.20;;;20.70;57.00;;;;;;5899413;28;20041;-62
2022/12/14 10:59:43;;;;;;;1.30;0.95;;;;;;;;;;5920510;28;20036;-62
2022/12/14 11:03:14;;;;;;;1.10;1.00;;;20.90;57.10;;;;;;5904334;28;20057;-63
2022/12/14 11:06:18;;;;;;;1.30;1.17;;;20.80;57.10;;;;;;5896137;28;20139;-62
2022/12/14 11:09:20;;;;;;;2.20;0.98;;;20.90;54.80;;;;;;5945007;28;21016;-60
2022/12/14 11:12:26;;;;;;;1.08;0.98;;;20.20;56.50;;;;;;5943574;28;20133;-60
2022/12/14 11:18:58;;;;;;;1.20;0.90;;;20.90;56.60;;;;;;6070811;23;20048;-61
2022/12/14 11:22:11;;;;;;;0.93;0.80;;;20.80;57.00;;;;;;5923802;28;20150;-61
2022/12/14 11:25:33;;;;;;;2.10;1.05;;;20.90;57.30;;;;;;5985484;29;20167;-61
2022/12/14 11:28:38;;;;;;;1.10;0.80;;;21.10;57.20;;;;;;5945021;29;20055;-62
2022/12/14 11:31:44;;;;;;;1.00;0.90;;;21.00;56.50;;;;;;6033604;29;20126;-60
2022/12/14 11:34:56;;;;;;;1.88;0.90;;;20.90;56.60;;;;;;5981505;29;20495;-61
2022/12/14 11:37:59;;;;;;;1.00;0.90;;;20.50;56.50;;;;;;5933328;28;20150;-62
2022/12/14 11:41:03;;;;;;;1.80;1.10;;;21.00;56.70;;;;;;5975422;28;20921;-63
2022/12/14 11:44:20;;;;;;;;;;;21.20;57.30;;;;;;5992893;29;20410;-60
2022/12/14 11:50:34;;;;;;;1.17;0.90;;;21.00;56.20;;;;;;5905531;29;20045;-63
2022/12/14 11:53:35;;;;;;;0.85;0.70;;;;;;;;;;6097432;23;20058;-62
2022/12/14 11:56:37;;;;;;;0.98;0.68;;;;;;;;;;5981563;29;20079;-60
2022/12/14 11:59:44;;;;;;;6.13;0.93;;;21.00;56.40;;;;;;6049649;23;20503;-59
2022/12/14 12:02:49;;;;;;;1.25;0.70;;;21.00;56.50;;;;;;5963065;28;21717;-62
2022/12/14 12:05:53;;;;;;;1.10;0.82;;;21.00;56.40;;;;;;5965800;28;20082;-62
2022/12/14 12:08:57;;;;;;;1.40;0.90;;;21.00;56.60;;;;;;5974965;29;20056;-61
2022/12/14 12:11:59;;;;;;;0.90;0.70;;;;;;;;;;5997949;28;20043;-60
2022/12/14 12:15:01;;;;;;;0.70;0.60;;;;;;;;;;6004657;28;20042;-61
2022/12/14 12:18:07;;;;;;;0.80;0.68;;;21.00;56.90;;;;;;5987798;28;21231;-61
2022/12/14 12:21:14;;;;;;;1.05;0.85;;;20.90;56.80;;;;;;5992628;28;20134;-61
2022/12/14 12:24:21;;;;;;;1.40;0.95;;;21.10;56.50;;;;;;5949533;29;20055;-62
2022/12/14 12:27:23;;;;;;;0.80;0.63;;;;;;;;;;5990435;28;22786;-61
2022/12/14 12:30:52;;;;;;;0.80;0.60;;;20.90;56.90;;;;;;6066656;23;20052;-61
2022/12/14 12:33:59;;;;;;;1.13;0.85;;;20.90;56.70;;;;;;6161007;23;20047;-57
2022/12/14 12:37:07;;;;;;;0.88;0.80;;;21.00;57.00;;;;;;6144472;29;20463;-57
2022/12/14 12:40:32;;;;;;;1.00;0.60;;;20.90;57.00;;;;;;6132542;28;20091;-58
2022/12/14 12:43:37;;;;;;;0.90;0.70;;;20.70;56.80;;;;;;6448160;23;20044;-57
2022/12/14 12:46:47;;;;;;;0.80;0.63;;;20.90;56.80;;;;;;6708810;23;20056;-57
2022/12/14 12:50:15;;;;;;;0.83;0.63;;;20.90;57.10;;;;;;7106787;23;20051;-58
2022/12/14 12:53:23;;;;;;;0.70;0.60;;;20.80;57.50;;;;;;6549017;23;20019;-58
2022/12/14 12:56:32;;;;;;;0.80;0.70;;;20.70;57.40;;;;;;6143931;28;20408;-54
2022/12/14 12:59:37;;;;;;;0.80;0.63;;;20.70;57.70;;;;;;6143951;29;20047;-58
2022/12/14 13:02:45;;;;;;;1.17;0.60;;;20.70;57.80;;;;;;6122265;29;20047;-58
2022/12/14 13:05:54;;;;;;;0.82;0.60;;;20.70;57.90;;;;;;6137550;29;20476;-58
2022/12/14 13:09:14;;;;;;;0.60;0.55;;;20.70;58.00;;;;;;6120345;29;20051;-57
2022/12/14 13:12:23;;;;;;;1.00;0.60;;;20.60;58.30;;;;;;6136476;29;20075;-57
2022/12/14 13:15:28;;;;;;;0.57;0.52;;;20.80;58.20;;;;;;6133636;29;20056;-57
2022/12/14 13:18:34;;;;;;;0.70;0.57;;;20.80;57.30;;;;;;6136739;29;20044;-57
2022/12/14 13:21:56;;;;;;;1.45;0.60;;;;;;;;;;6125419;29;20085;-53
2022/12/14 13:25:14;;;;;;;3.25;0.57;;;20.70;58.60;;;;;;6149123;28;20054;-59
2022/12/14 13:28:49;;;;;;;0.75;0.57;;;20.60;58.30;;;;;;6145662;29;20047;-56
2022/12/14 13:31:58;;;;;;;0.75;0.60;;;20.60;58.40;;;;;;6119187;29;20044;-55
2022/12/14 13:35:13;;;;;;;0.50;0.45;;;20.50;58.60;;;;;;6130918;29;20044;-58
2022/12/14 13:38:35;;;;;;;0.80;0.70;;;20.70;58.70;;;;;;6129012;29;20055;-55
2022/12/14 13:41:45;;;;;;;1.00;0.88;;;20.60;58.50;;;;;;6145449;29;20079;-56
2022/12/14 13:44:56;;;;;;;1.05;0.70;;;20.70;58.10;;;;;;6139100;29;20095;-56
2022/12/14 13:47:58;;;;;;;1.13;0.80;;;;;;;;;;6130693;29;20044;-54
2022/12/14 13:51:03;;;;;;;1.05;0.77;;;20.60;56.90;;;;;;6150434;29;20071;-56
2022/12/14 13:54:17;;;;;;;0.70;0.57;;;20.50;56.90;;;;;;6150466;29;20039;-56
2022/12/14 13:57:23;;;;;;;0.93;0.80;;;20.80;57.70;;;;;;6114521;29;20044;-56
2022/12/14 14:00:51;;;;;;;0.80;0.80;;;20.60;57.60;;;;;;6141865;29;20058;-57
2022/12/14 14:03:55;;;;;;;1.00;0.80;;;20.50;57.60;;;;;;6131193;29;20054;-58
2022/12/14 14:07:21;;;;;;;0.90;0.60;;;20.60;57.70;;;;;;6137091;29;20039;-58
2022/12/14 14:14:05;;;;;;;;;;;20.60;58.50;;;;;;6168287;23;20253;-55
2022/12/14 14:17:14;;;;;;;1.17;0.73;;;20.70;58.00;;;;;;6141530;29;20371;-58
2022/12/14 14:20:35;;;;;;;1.13;0.82;;;20.60;58.00;;;;;;6153375;28;20032;-57
2022/12/14 14:23:38;;;;;;;1.10;0.80;;;;;;;;;;6135465;28;20040;-57
2022/12/14 14:26:40;;;;;;;0.93;0.80;;;20.70;57.80;;;;;;6130114;28;20147;-58
2022/12/14 14:33:30;;;;;;;0.80;0.65;;;20.70;56.90;;;;;;6750419;23;20027;31
2022/12/14 14:36:50;;;;;;;1.30;0.90;;;21.90;57.00;;;;;;6307600;23;20083;-53
2022/12/14 14:39:59;;;;;;;0.73;0.73;;;20.80;57.80;;;;;;6139995;29;20047;-60
2022/12/14 14:43:27;;;;;;;1.08;0.77;;;20.70;57.60;;;;;;6171704;23;20046;-65
2022/12/14 14:46:34;;;;;;;0.93;0.70;;;20.50;57.30;;;;;;6144412;28;20048;-60
2022/12/14 14:49:40;;;;;;;1.20;1.05;;;20.80;57.20;;;;;;6131086;29;20047;-59
2022/12/14 14:52:59;;;;;;;1.45;0.95;;;20.70;57.50;;;;;;6170830;23;20032;-61
2022/12/14 14:56:05;;;;;;;1.10;0.90;;;20.80;57.50;;;;;;6115720;29;20484;-58
2022/12/14 14:59:27;;;;;;;1.00;0.80;;;20.60;57.70;;;;;;6138785;29;20044;-57
2022/12/14 15:02:32;;;;;;;1.17;0.80;;;20.70;58.20;;;;;;6327608;23;20047;-56
2022/12/14 15:05:36;;;;;;;1.20;0.90;;;20.70;57.60;;;;;;6128705;28;20048;-58
2022/12/14 15:08:46;;;;;;;;;;;20.60;58.60;;;;;;6139432;29;20032;-58
2022/12/14 15:11:51;;;;;;;0.93;0.85;;;20.70;58.00;;;;;;6139583;29;20430;-58
2022/12/14 15:14:59;;;;;;;2.78;1.23;;;20.70;57.90;;;;;;6134199;28;20032;-59
2022/12/14 15:18:21;;;;;;;1.13;0.95;;;20.60;53.70;;;;;;6243148;23;20035;-59
2022/12/14 15:24:40;;;;;;;1.52;1.20;;;20.60;57.70;;;;;;6130481;28;20064;-57
2022/12/14 15:27:42;;;;;;;1.23;1.05;;;;;;;;;;6130144;28;20044;-59
2022/12/14 15:30:46;;;;;;;1.20;1.10;;;20.70;57.70;;;;;;6117198;29;20035;-57
2022/12/14 15:33:49;;;;;;;1.25;1.10;;;;;;;;;;6130273;28;20048;-57
2022/12/14 15:36:52;;;;;;;2.22;1.13;;;20.60;58.00;;;;;;6126963;28;20056;-57
2022/12/14 15:40:04;;;;;;;1.50;1.40;;;20.60;57.80;;;;;;6113375;29;20108;-55
2022/12/14 15:43:17;;;;;;;1.30;1.20;;;20.70;58.00;;;;;;6099764;28;20044;-61
2022/12/14 15:46:24;;;;;;;1.40;1.05;;;20.50;57.80;;;;;;6094449;29;20068;-59
2022/12/14 15:49:26;;;;;;;1.48;1.27;;;;;;;;;;6117466;29;20116;-58
2022/12/14 15:52:29;;;;;;;1.25;1.15;;;20.60;57.70;;;;;;6127417;29;20088;-57
2022/12/14 15:55:34;;;;;;;1.27;1.17;;;20.50;57.60;;;;;;6112962;29;20135;-58
2022/12/14 15:58:39;;;;;;;1.20;1.00;;;20.50;57.50;;;;;;6113567;29;20047;-58
2022/12/14 16:01:43;;;;;;;1.10;0.90;;;20.60;57.70;;;;;;6120094;29;20457;-57
2022/12/14 16:04:54;;;;;;;1.35;1.17;;;20.70;55.60;;;;;;6102435;29;20040;-58
2022/12/14 16:07:57;;;;;;;1.48;1.17;;;20.60;58.00;;;;;;6103067;29;20103;-58
2022/12/14 16:11:02;;;;;;;2.08;1.30;;;20.60;58.00;;;;;;6123173;29;20079;-59
2022/12/14 16:14:18;;;;;;;1.70;1.13;;;20.70;56.90;;;;;;6115566;29;20130;-57
2022/12/14 16:17:24;;;;;;;1.60;1.05;;;20.60;58.20;;;;;;6107286;29;20506;-57
2022/12/14 16:20:28;;;;;;;1.65;1.30;;;20.50;58.00;;;;;;6093020;29;20063;-61
2022/12/14 16:23:32;;;;;;;1.52;0.93;;;20.60;58.10;;;;;;6107735;29;20076;-62
2022/12/14 16:26:37;;;;;;;2.15;1.08;;;20.60;56.50;;;;;;6093925;29;20040;-57
2022/12/14 16:29:39;;;;;;;1.13;1.00;;;20.70;58.30;;;;;;6093660;29;20527;-58
2022/12/14 16:32:53;;;;;;;1.50;1.02;;;20.80;57.50;;;;;;6097288;29;20083;-57
2022/12/14 16:36:01;;;;;;;0.90;0.73;;;20.70;57.90;;;;;;6082972;29;20059;-56
2022/12/14 16:39:06;;;;;;;1.25;0.88;;;20.80;56.90;;;;;;6098229;29;20048;-57
2022/12/14 16:42:18;;;;;;;1.67;0.60;;;21.00;58.00;;;;;;6116650;29;20054;-57
2022/12/14 16:46:04;;;;;;;1.00;0.68;;;20.90;57.60;;;;;;6096098;29;20103;-57
2022/12/14 16:49:19;;;;;;;2.05;0.70;;;21.00;57.40;;;;;;6091285;29;20064;-55
2022/12/14 16:52:25;;;;;;;0.70;0.60;;;20.80;57.50;;;;;;6083983;29;20044;-58
2022/12/14 16:55:27;;;;;;;1.15;0.63;;;20.90;57.50;;;;;;6109739;28;20028;-56
2022/12/14 16:58:29;;;;;;;1.35;0.85;;;;;;;;;;6121986;29;20052;-55
2022/12/14 17:01:41;;;;;;;1.05;0.80;;;20.80;57.80;;;;;;6130083;28;20038;-57
2022/12/14 17:04:43;;;;;;;1.23;0.65;;;;;;;;;;6129379;28;20519;-58
2022/12/14 17:07:45;;;;;;;0.77;0.77;;;;;;;;;;6129116;29;20445;-59
2022/12/14 17:10:47;;;;;;;1.20;0.93;;;20.70;56.00;;;;;;6130138;29;20055;-58
2022/12/14 17:13:48;;;;;;;0.80;0.70;;;;;;;;;;6129359;29;20047;-58
2022/12/14 17:16:57;;;;;;;1.58;0.70;;;20.80;56.60;;;;;;6127936;29;20101;-58
2022/12/14 17:20:01;;;;;;;0.93;0.82;;;20.80;56.10;;;;;;6111531;29;20072;-58
2022/12/14 17:23:03;;;;;;;0.90;0.70;;;20.50;54.50;;;;;;6127714;29;20072;-58
2022/12/14 17:26:05;;;;;;;0.75;0.60;;;20.70;56.10;;;;;;6128265;29;20111;-58
2022/12/14 17:29:17;;;;;;;0.88;0.80;;;20.50;56.50;;;;;;6125442;29;20389;-58